ADDS METAR Data INFO
IDs: Format: Raw Decoded Include TAF

Data at: 1346 UTC 17 Dec 2017

KRMY 171335Z AUTO 10005KT 2 1/2SM BR OVC002 M03/M04 A3013 RMK AO2 T10331036
KRMY 171315Z AUTO 09007KT 3SM BR OVC002 M03/M04 A3013 RMK AO2 T10351037
KRMY 171255Z AUTO 10007KT 3SM BR OVC002 M03/M04 A3014 RMK AO2 T10341037
KRMY 171235Z AUTO 11008KT 3SM BR OVC002 M03/M04 A3014 RMK AO2 T10331036
KRMY 171215Z AUTO 10007KT 2 1/2SM BR OVC002 M03/M04 A3012 RMK AO2 T10331036
KRMY 171155Z AUTO 10007KT 2 1/2SM BR OVC002 M03/M03 A3013 RMK AO2 T10321035 11031 21050
KRMY 171135Z AUTO 10005KT 2SM BR OVC002 M03/M03 A3014 RMK AO2 T10321035
KRMY 171115Z AUTO 09006KT 1 3/4SM BR OVC002 M03/M03 A3013 RMK AO2 T10311035
KRMY 171055Z AUTO 08005KT 1 3/4SM BR OVC002 M03/M03 A3012 RMK AO2 T10321035
KRMY 171035Z AUTO 10007KT 2SM BR OVC002 M03/M03 A3013 RMK AO2 T10321035
KRMY 171015Z AUTO 09004KT 1 3/4SM BR OVC002 M03/M04 A3013 RMK AO2 T10341036
KRMY 170955Z AUTO 10005KT 1 1/2SM BR OVC002 M03/M04 A3014 RMK AO2 T10351038
KRMY 170935Z AUTO 10005KT 1 1/2SM BR OVC002 M04/M04 A3013 RMK AO2 T10361040
KRMY 170915Z AUTO 09005KT 1 3/4SM BR OVC002 M04/M04 A3012 RMK AO2 T10381041
KRMY 170855Z AUTO 09004KT 2 1/2SM BR OVC004 M04/M04 A3012 RMK AO2 T10401042
KRMY 170835Z AUTO 10004KT 4SM BR OVC004 M04/M04 A3012 RMK AO2 T10401042
KRMY 170815Z AUTO 10004KT 5SM BR OVC004 M04/M04 A3012 RMK AO2 T10411045
KRMY 170755Z AUTO 09006KT 7SM OVC006 M04/M04 A3011 RMK AO2 T10421045
KRMY 170735Z AUTO 09005KT 7SM OVC006 M04/M05 A3011 RMK AO2 T10431047
KRMY 170715Z AUTO 08004KT 10SM OVC006 M05/M05 A3011 RMK AO2 T10461053
KRMY 170655Z AUTO 08005KT 10SM SCT008 M05/M06 A3010 RMK AO2 T10501057
KRMY 170635Z AUTO 08003KT 10SM CLR M05/M06 A3012 RMK AO2 T10481058
KRMY 170615Z AUTO 08003KT 10SM CLR M05/M06 A3012 RMK AO2 T10461058
KRMY 170555Z AUTO 08003KT 10SM CLR M04/M06 A3011 RMK AO2 T10441056 11014 21048 400501048
KRMY 170535Z AUTO 09003KT 10SM CLR M04/M06 A3013 RMK AO2 T10451059
KRMY 170515Z AUTO 08004KT 10SM CLR M04/M06 A3013 RMK AO2 T10411056
KRMY 170455Z AUTO 11005KT 10SM CLR M04/M05 A3012 RMK AO2 T10411054
KRMY 170435Z AUTO 10004KT 10SM CLR M04/M05 A3011 RMK AO2 T10421053
KRMY 170415Z AUTO 09005KT 10SM CLR M03/M05 A3011 RMK AO2 T10351051
KRMY 170355Z AUTO 08005KT 10SM CLR M03/M05 A3011 RMK AO2 T10311046
KRMY 170335Z AUTO 09005KT 10SM CLR M03/M04 A3011 RMK AO2 T10281043
KRMY 170315Z AUTO 09004KT 10SM CLR M03/M04 A3010 RMK AO2 T10281040
KRMY 170255Z AUTO 08005KT 10SM CLR M02/M04 A3009 RMK AO2 T10251037
KRMY 170235Z AUTO 07004KT 10SM CLR M03/M04 A3009 RMK AO2 T10331041
KRMY 170215Z AUTO 05003KT 10SM SCT070 M03/M04 A3009 RMK AO2 T10281040
KRMY 170155Z AUTO 04003KT 10SM SCT070 M02/M04 A3008 RMK AO2 T10251039
KRMY 170135Z AUTO 06003KT 10SM BKN070 M02/M04 A3008 RMK AO2 T10221038
KRMY 170115Z AUTO 05003KT 10SM SCT070 M02/M04 A3007 RMK AO2 T10231039
KRMY 170055Z AUTO 05003KT 10SM SCT070 M02/M04 A3007 RMK AO2 T10201040
KRMY 170035Z AUTO 06003KT 10SM SCT070 M02/M04 A3006 RMK AO2 T10171038
KRMY 170015Z AUTO 00000KT 10SM SCT070 M02/M04 A3006 RMK AO2 T10161039
KRMY 162355Z AUTO 00000KT 10SM BKN070 M01/M04 A3005 RMK AO2 T10131037 10050 21013
KRMY 162335Z AUTO 05003KT 10SM OVC070 M01/M03 A3003 RMK AO2 T10071035
KRMY 162315Z AUTO 05003KT 10SM OVC070 00/M03 A3003 RMK AO2 T10021032
KRMY 162255Z AUTO 04003KT 10SM OVC070 00/M03 A3002 RMK AO2 T00001031
KRMY 162235Z AUTO 02003KT 10SM OVC070 01/M03 A3001 RMK AO2 T00091030
KRMY 162215Z AUTO 00000KT 10SM OVC070 03/M03 A3000 RMK AO2 T00251031
KRMY 162155Z AUTO 16003KT 10SM OVC070 03/M03 A2999 RMK AO2 T00261035
KRMY 162135Z AUTO 00000KT 10SM OVC070 03/M03 A2999 RMK AO2 T00331034
KRMY 162115Z AUTO 15004KT 10SM SCT070 03/M03 A2997 RMK AO2 T00301035
KRMY 162055Z AUTO 15003KT 10SM CLR 03/M04 A2996 RMK AO2 T00301036
KRMY 162035Z AUTO 12004KT 10SM SCT085 03/M03 A2995 RMK AO2 T00301034
KRMY 162015Z AUTO 20004KT 10SM SCT085 03/M04 A2995 RMK AO2 T00321036
KRMY 161955Z AUTO 00000KT 10SM SCT085 03/M03 A2994 RMK AO2 T00311035
KRMY 161935Z AUTO 19005KT 10SM SCT028 03/M03 A2994 RMK AO2 T00301035
KRMY 161915Z AUTO 18004KT 10SM SCT028 03/M04 A2993 RMK AO2 T00331037
KRMY 161855Z AUTO 00000KT 10SM SCT085 05/M03 A2992 RMK AO2 T00471031
KRMY 161835Z AUTO 25004KT 10SM BKN085 03/M04 A2992 RMK AO2 T00291036
KRMY 161815Z AUTO 00000KT 10SM OVC085 03/M03 A2992 RMK AO2 T00301035
KRMY 161755Z AUTO 23005KT 10SM OVC085 03/M03 A2993 RMK AO2 T00251033 10025 21001
KRMY 161735Z AUTO 22003KT 10SM OVC085 02/M03 A2993 RMK AO2 T00221033
KRMY 161715Z AUTO 20004KT 10SM OVC085 02/M03 A2993 RMK AO2 T00181035
KRMY 161655Z AUTO 22005KT 10SM OVC085 02/M03 A2992 RMK AO2 T00151034
KRMY 161635Z AUTO 21006KT 10SM OVC075 01/M04 A2993 RMK AO2 T00131036
KRMY 161615Z AUTO 20004KT 10SM OVC075 01/M03 A2993 RMK AO2 T00121035
KRMY 161555Z AUTO 21003KT 10SM SCT060 OVC075 01/M04 A2993 RMK AO2 T00101036
KRMY 161535Z AUTO 00000KT 10SM SCT060 BKN075 OVC080 01/M04 A2992 RMK AO2 T00081036
KRMY 161515Z AUTO 22004KT 10SM SCT055 OVC065 01/M04 A2992 RMK AO2 T00061038
KRMY 161455Z AUTO 23004KT 10SM SCT049 BKN065 OVC075 01/M04 A2991 RMK AO2 T00061039
KRMY 161435Z AUTO 22005KT 10SM OVC080 01/M04 A2991 RMK AO2 T00051041
KRMY 161415Z AUTO 22003KT 10SM BKN070 OVC080 00/M04 A2990 RMK AO2 T00041042
KRMY 161355Z AUTO 22007KT 10SM SCT070 OVC090 00/M04 A2989 RMK AO2 T00031044
KRMY 161335Z AUTO 22004KT 10SM OVC090 00/M04 A2988 RMK AO2 T00021045
KRMY 161315Z AUTO 21007KT 10SM SCT075 OVC090 00/M05 A2988 RMK AO2 T00011046
KRMY 161255Z AUTO 21006KT 10SM OVC075 00/M05 A2989 RMK AO2 T00001047
KRMY 161235Z AUTO 21005KT 10SM OVC090 00/M05 A2989 RMK AO2 T00001050
KRMY 161216Z AUTO 21005KT 10SM OVC090 00/M05 A2987 RMK AO2 T00001051
KRMY 161155Z AUTO 00000KT 10SM SCT050 BKN090 OVC120 00/M05 A2987 RMK AO2 T10021051 11001 21021
KRMY 161135Z AUTO 00000KT 10SM SCT055 BKN065 BKN075 00/M05 A2986 RMK AO2 T10041048
KRMY 161115Z AUTO 21003KT 10SM SCT050 OVC065 00/M04 A2986 RMK AO2 T10051045
KRMY 161055Z AUTO 22006KT 10SM SCT034 BKN040 OVC050 00/M04 A2986 RMK AO2 T10051040
KRMY 161035Z AUTO 21007KT 5SM -SN SCT030 BKN043 OVC050 00/M05 A2986 RMK AO2 T10051046
KRMY 161015Z AUTO 21008KT 10SM SCT046 BKN065 OVC100 00/M05 A2986 RMK AO2 T10031053
KRMY 160955Z AUTO 21007KT 10SM SCT044 SCT050 OVC100 M01/M05 A2986 RMK AO2 T10081053
KRMY 160935Z AUTO 22008KT 10SM SCT037 BKN044 OVC060 M01/M05 A2986 RMK AO2 T10071052
KRMY 160915Z AUTO 22009KT 10SM BKN043 BKN049 OVC055 M01/M05 A2986 RMK AO2 T10061052
KRMY 160855Z AUTO 22009KT 10SM OVC046 M01/M05 A2986 RMK AO2 T10101050
KRMY 160835Z AUTO 22010KT 10SM BKN048 OVC055 M01/M04 A2987 RMK AO2 T10141045
KRMY 160815Z AUTO 22007KT 10SM SCT034 BKN055 OVC065 M02/M04 A2987 RMK AO2 T10161040
KRMY 160755Z AUTO 21007KT 5SM -SN SCT021 BKN027 OVC042 M02/M04 A2988 RMK AO2 T10201036
KRMY 160735Z AUTO 21006KT 4SM -SN SCT021 BKN028 OVC049 M02/M04 A2988 RMK AO2 T10201037
KRMY 160715Z AUTO 22007KT 10SM OVC047 M02/M04 A2987 RMK AO2 T10201038
KRMY 160655Z AUTO 22006KT 10SM SCT014 SCT039 OVC044 M02/M04 A2987 RMK AO2 T10201036
KRMY 160635Z AUTO 23007KT 10SM -SN SCT014 BKN030 OVC037 M02/M03 A2986 RMK AO2 T10201035
KRMY 160615Z AUTO 22009KT 10SM -SN SCT014 BKN030 OVC038 M02/M03 A2987 RMK AO2 T10201035
KRMY 160555Z AUTO 23011G15KT 10SM -SN SCT028 OVC040 M02/M03 A2987 RMK AO2 T10221033 11022 21037 410221091
KRMY 160535Z AUTO 22008KT 4SM -SN SCT013 BKN026 OVC037 M02/M03 A2987 RMK AO2 T10251035
KRMY 160515Z AUTO 23007KT 5SM -SN SCT010 SCT014 OVC024 M02/M04 A2987 RMK AO2 T10251036
KRMY 160455Z AUTO 23007KT 5SM -SN SCT011 SCT014 OVC024 M02/M03 A2988 RMK AO2 T10251035
KRMY 160435Z AUTO 22008KT 3SM -SN BKN011 BKN016 OVC028 M02/M03 A2988 RMK AO2 T10251032
KRMY 160415Z AUTO 23008KT 2 1/2SM -SN SCT011 SCT016 OVC026 M02/M03 A2989 RMK AO2 T10251032
KRMY 160355Z AUTO 23009KT 4SM -SN SCT013 OVC028 M02/M03 A2988 RMK AO2 T10251034
KRMY 160335Z AUTO 23008KT 3SM -SN BKN024 OVC031 M02/M04 A2988 RMK AO2 T10251036
KRMY 160315Z AUTO 23009G14KT 4SM -SN BKN023 OVC028 M02/M04 A2988 RMK AO2 T10231045
KRMY 160255Z AUTO 23008KT 5SM -SN BKN021 OVC034 M02/M05 A2988 RMK AO2 T10251049
KRMY 160235Z AUTO 22007KT 7SM -SN BKN021 OVC030 M03/M05 A2988 RMK AO2 T10271053
KRMY 160215Z AUTO 22006KT 7SM -SN OVC023 M03/M06 A2988 RMK AO2 T10301058
KRMY 160155Z AUTO 21004KT 10SM -SN OVC021 M03/M06 A2988 RMK AO2 T10331065